Time;durP1;ratioP1;P1;durP2;ratioP2;P2;SDS_P1;SDS_P2;PMS_P1;PMS_P2;Temp;Humidity;BMP_temperature;BMP_pressure;BME280_temperature;BME280_humidity;BME280_pressure;Samples;Min_cycle;Max_cycle;Signal;HPM_P1;HPM_P2
2022/05/02 00:00:00;;;;;;;17.2;15.6;;;;;;;10.1;100.0;101860;;;;
2022/05/02 00:01:00;;;;;;;17.2;15.6;;;;;;;10.1;100.0;101860;;;;
2022/05/02 00:02:00;;;;;;;17.2;15.6;;;;;;;10.1;100.0;101860;;;;
2022/05/02 00:03:00;;;;;;;17.2;15.6;;;;;;;10.1;100.0;101860;;;;
2022/05/02 00:04:00;;;;;;;17.2;15.6;;;;;;;10.1;100.0;101860;;;;
2022/05/02 00:05:00;;;;;;;17.2;15.6;;;;;;;10.1;100.0;101860;;;;
2022/05/02 00:06:00;;;;;;;17.2;15.6;;;;;;;10.1;100.0;101860;;;;
2022/05/02 00:07:00;;;;;;;17.2;15.6;;;;;;;10.1;100.0;101860;;;;
2022/05/02 00:08:00;;;;;;;17.2;15.6;;;;;;;10.0;100.0;101860;;;;
2022/05/02 00:09:00;;;;;;;17.2;15.6;;;;;;;10.0;100.0;101860;;;;
2022/05/02 00:10:00;;;;;;;17.2;15.6;;;;;;;10.0;100.0;101850;;;;
2022/05/02 00:11:00;;;;;;;17.9;16.2;;;;;;;10.0;100.0;101850;;;;
2022/05/02 00:12:00;;;;;;;17.9;16.2;;;;;;;10.1;100.0;101850;;;;
2022/05/02 00:13:01;;;;;;;17.9;16.2;;;;;;;10.1;100.0;101850;;;;
2022/05/02 00:14:00;;;;;;;17.9;16.2;;;;;;;10.0;100.0;101850;;;;
2022/05/02 00:15:00;;;;;;;17.9;16.2;;;;;;;10.0;100.0;101850;;;;
2022/05/02 00:16:00;;;;;;;17.9;16.2;;;;;;;9.9;100.0;101860;;;;
2022/05/02 00:17:00;;;;;;;17.9;16.2;;;;;;;9.9;100.0;101860;;;;
2022/05/02 00:18:00;;;;;;;17.9;16.2;;;;;;;9.9;100.0;101850;;;;
2022/05/02 00:19:00;;;;;;;17.9;16.2;;;;;;;9.9;100.0;101850;;;;
2022/05/02 00:20:00;;;;;;;17.9;16.2;;;;;;;9.9;100.0;101850;;;;
2022/05/02 00:21:00;;;;;;;17.9;16.2;;;;;;;9.9;100.0;101850;;;;
2022/05/02 00:22:00;;;;;;;17.9;16.2;;;;;;;9.9;100.0;101850;;;;
2022/05/02 00:23:02;;;;;;;17.9;16.2;;;;;;;9.9;100.0;101850;;;;
2022/05/02 00:24:00;;;;;;;17.9;16.2;;;;;;;9.9;100.0;101840;;;;
2022/05/02 00:25:05;;;;;;;17.9;16.2;;;;;;;9.9;100.0;101840;;;;
2022/05/02 00:26:00;;;;;;;17.9;16.2;;;;;;;9.8;100.0;101850;;;;
2022/05/02 00:27:00;;;;;;;17.9;16.2;;;;;;;9.8;100.0;101850;;;;
2022/05/02 00:28:00;;;;;;;17.9;16.2;;;;;;;9.8;100.0;101850;;;;
2022/05/02 00:29:00;;;;;;;17.9;16.2;;;;;;;9.8;100.0;101850;;;;
2022/05/02 00:30:00;;;;;;;17.9;16.2;;;;;;;9.8;100.0;101840;;;;
2022/05/02 00:31:00;;;;;;;19.2;17.4;;;;;;;9.8;100.0;101840;;;;
2022/05/02 00:32:00;;;;;;;19.2;17.4;;;;;;;9.8;100.0;101840;;;;
2022/05/02 00:33:00;;;;;;;19.2;17.4;;;;;;;9.8;100.0;101840;;;;
2022/05/02 00:34:00;;;;;;;19.2;17.4;;;;;;;9.7;100.0;101840;;;;
2022/05/02 00:35:00;;;;;;;19.2;17.4;;;;;;;9.7;100.0;101840;;;;
2022/05/02 00:36:00;;;;;;;19.2;17.4;;;;;;;9.6;100.0;101840;;;;
2022/05/02 00:37:00;;;;;;;19.2;17.4;;;;;;;9.6;100.0;101840;;;;
2022/05/02 00:38:00;;;;;;;19.2;17.4;;;;;;;9.6;100.0;101840;;;;
2022/05/02 00:39:00;;;;;;;19.2;17.4;;;;;;;9.6;100.0;101840;;;;
2022/05/02 00:40:00;;;;;;;19.2;17.4;;;;;;;9.6;100.0;101840;;;;
2022/05/02 00:41:00;;;;;;;19.2;17.4;;;;;;;9.6;100.0;101840;;;;
2022/05/02 00:42:00;;;;;;;19.2;17.4;;;;;;;9.5;100.0;101840;;;;
2022/05/02 00:43:00;;;;;;;19.2;17.4;;;;;;;9.5;100.0;101840;;;;
2022/05/02 00:44:00;;;;;;;19.2;17.4;;;;;;;9.4;100.0;101840;;;;
2022/05/02 00:45:00;;;;;;;19.2;17.4;;;;;;;9.4;100.0;101840;;;;
2022/05/02 00:46:00;;;;;;;19.2;17.4;;;;;;;9.3;100.0;101830;;;;
2022/05/02 00:47:00;;;;;;;19.2;17.4;;;;;;;9.3;100.0;101830;;;;
2022/05/02 00:48:00;;;;;;;19.2;17.4;;;;;;;9.3;100.0;101830;;;;
2022/05/02 00:49:00;;;;;;;19.2;17.4;;;;;;;9.3;100.0;101830;;;;
2022/05/02 00:50:00;;;;;;;19.2;17.4;;;;;;;9.4;100.0;101830;;;;
2022/05/02 00:51:00;;;;;;;19.5;17.7;;;;;;;9.4;100.0;101830;;;;
2022/05/02 00:52:00;;;;;;;19.5;17.7;;;;;;;9.4;100.0;101830;;;;
2022/05/02 00:53:01;;;;;;;19.5;17.7;;;;;;;9.4;100.0;101830;;;;
2022/05/02 00:54:00;;;;;;;19.5;17.7;;;;;;;9.4;100.0;101830;;;;
2022/05/02 00:55:00;;;;;;;19.5;17.7;;;;;;;9.4;100.0;101830;;;;
2022/05/02 00:56:00;;;;;;;19.5;17.7;;;;;;;9.4;100.0;101830;;;;
2022/05/02 00:57:00;;;;;;;19.5;17.7;;;;;;;9.4;100.0;101830;;;;
2022/05/02 00:58:01;;;;;;;19.5;17.7;;;;;;;9.3;100.0;101830;;;;
2022/05/02 00:59:00;;;;;;;19.5;17.7;;;;;;;9.3;100.0;101830;;;;
2022/05/02 01:00:01;;;;;;;19.5;17.7;;;;;;;9.3;100.0;101830;;;;
2022/05/02 01:01:04;;;;;;;19.5;17.7;;;;;;;9.3;100.0;101830;;;;
2022/05/02 01:02:00;;;;;;;19.5;17.7;;;;;;;9.2;100.0;101830;;;;
2022/05/02 01:03:01;;;;;;;19.5;17.7;;;;;;;9.2;100.0;101830;;;;
2022/05/02 01:04:00;;;;;;;19.5;17.7;;;;;;;9.2;100.0;101820;;;;
2022/05/02 01:05:00;;;;;;;19.5;17.7;;;;;;;9.2;100.0;101820;;;;
2022/05/02 01:08:00;;;;;;;19.5;17.7;;;;;;;9.2;100.0;101820;;;;
2022/05/02 01:09:00;;;;;;;19.5;17.7;;;;;;;9.2;100.0;101820;;;;
2022/05/02 01:10:00;;;;;;;19.5;17.7;;;;;;;9.2;100.0;101820;;;;
2022/05/02 01:11:00;;;;;;;19.4;17.6;;;;;;;9.2;100.0;101820;;;;
2022/05/02 01:12:00;;;;;;;19.4;17.6;;;;;;;9.2;100.0;101820;;;;
2022/05/02 01:13:00;;;;;;;19.4;17.6;;;;;;;9.2;100.0;101820;;;;
2022/05/02 01:14:00;;;;;;;19.4;17.6;;;;;;;9.1;100.0;101820;;;;
2022/05/02 01:15:00;;;;;;;19.4;17.6;;;;;;;9.1;100.0;101820;;;;
2022/05/02 01:16:06;;;;;;;19.4;17.6;;;;;;;9.0;100.0;101830;;;;
2022/05/02 01:17:00;;;;;;;19.4;17.6;;;;;;;9.0;100.0;101830;;;;
2022/05/02 01:18:00;;;;;;;19.4;17.6;;;;;;;9.0;100.0;101820;;;;
2022/05/02 01:19:00;;;;;;;19.4;17.6;;;;;;;9.0;100.0;101820;;;;
2022/05/02 01:20:00;;;;;;;19.4;17.6;;;;;;;9.0;100.0;101830;;;;
2022/05/02 01:21:00;;;;;;;19.4;17.6;;;;;;;9.0;100.0;101830;;;;
2022/05/02 01:22:00;;;;;;;19.4;17.6;;;;;;;9.0;100.0;101820;;;;
2022/05/02 01:23:00;;;;;;;19.4;17.6;;;;;;;9.0;100.0;101820;;;;
2022/05/02 01:24:01;;;;;;;19.4;17.6;;;;;;;8.9;100.0;101820;;;;
2022/05/02 01:25:00;;;;;;;19.4;17.6;;;;;;;8.9;100.0;101820;;;;
2022/05/02 01:26:00;;;;;;;19.4;17.6;;;;;;;9.0;100.0;101820;;;;
2022/05/02 01:27:00;;;;;;;19.4;17.6;;;;;;;9.0;100.0;101820;;;;
2022/05/02 01:28:00;;;;;;;19.4;17.6;;;;;;;8.9;100.0;101820;;;;
2022/05/02 01:29:01;;;;;;;19.4;17.6;;;;;;;8.9;100.0;101820;;;;
2022/05/02 01:30:00;;;;;;;19.4;17.6;;;;;;;8.9;100.0;101820;;;;
2022/05/02 01:31:00;;;;;;;19.8;17.8;;;;;;;8.9;100.0;101820;;;;
2022/05/02 01:32:00;;;;;;;19.8;17.8;;;;;;;8.9;100.0;101820;;;;
2022/05/02 01:33:00;;;;;;;19.8;17.8;;;;;;;8.9;100.0;101820;;;;
2022/05/02 01:34:00;;;;;;;19.8;17.8;;;;;;;8.8;100.0;101820;;;;
2022/05/02 01:35:00;;;;;;;19.8;17.8;;;;;;;8.8;100.0;101820;;;;
2022/05/02 01:36:00;;;;;;;19.8;17.8;;;;;;;8.8;100.0;101820;;;;
2022/05/02 01:37:00;;;;;;;19.8;17.8;;;;;;;8.8;100.0;101820;;;;
2022/05/02 01:38:00;;;;;;;19.8;17.8;;;;;;;8.8;100.0;101820;;;;
2022/05/02 01:39:00;;;;;;;19.8;17.8;;;;;;;8.8;100.0;101820;;;;
2022/05/02 01:40:00;;;;;;;19.8;17.8;;;;;;;8.8;100.0;101820;;;;
2022/05/02 01:41:00;;;;;;;19.8;17.8;;;;;;;8.8;100.0;101820;;;;
2022/05/02 01:42:01;;;;;;;19.8;17.8;;;;;;;8.7;100.0;101820;;;;
2022/05/02 01:43:00;;;;;;;19.8;17.8;;;;;;;8.7;100.0;101820;;;;
2022/05/02 01:44:00;;;;;;;19.8;17.8;;;;;;;8.7;100.0;101820;;;;
2022/05/02 01:45:00;;;;;;;19.8;17.8;;;;;;;8.7;100.0;101820;;;;
2022/05/02 01:46:01;;;;;;;19.8;17.8;;;;;;;8.7;100.0;101820;;;;
2022/05/02 01:47:00;;;;;;;19.8;17.8;;;;;;;8.7;100.0;101820;;;;
2022/05/02 01:48:00;;;;;;;19.8;17.8;;;;;;;8.6;100.0;101820;;;;
2022/05/02 01:49:00;;;;;;;19.8;17.8;;;;;;;8.6;100.0;101820;;;;
2022/05/02 01:50:00;;;;;;;19.8;17.8;;;;;;;8.6;100.0;101820;;;;
2022/05/02 01:51:00;;;;;;;19.7;17.9;;;;;;;8.6;100.0;101820;;;;
2022/05/02 01:52:00;;;;;;;19.7;17.9;;;;;;;8.7;100.0;101810;;;;
2022/05/02 01:53:00;;;;;;;19.7;17.9;;;;;;;8.7;100.0;101810;;;;
2022/05/02 01:54:00;;;;;;;19.7;17.9;;;;;;;8.6;100.0;101820;;;;
2022/05/02 01:55:00;;;;;;;19.7;17.9;;;;;;;8.6;100.0;101820;;;;
2022/05/02 01:56:00;;;;;;;19.7;17.9;;;;;;;8.6;100.0;101820;;;;
2022/05/02 01:57:00;;;;;;;19.7;17.9;;;;;;;8.6;100.0;101820;;;;
2022/05/02 01:58:00;;;;;;;19.7;17.9;;;;;;;8.5;100.0;101810;;;;
2022/05/02 01:59:00;;;;;;;19.7;17.9;;;;;;;8.5;100.0;101810;;;;
2022/05/02 02:00:00;;;;;;;19.7;17.9;;;;;;;8.4;100.0;101810;;;;
2022/05/02 02:01:00;;;;;;;19.7;17.9;;;;;;;8.4;100.0;101810;;;;
2022/05/02 02:02:00;;;;;;;19.7;17.9;;;;;;;8.4;100.0;101810;;;;
2022/05/02 02:03:00;;;;;;;19.7;17.9;;;;;;;8.4;100.0;101810;;;;
2022/05/02 02:04:00;;;;;;;19.7;17.9;;;;;;;8.5;100.0;101810;;;;
2022/05/02 02:06:00;;;;;;;19.7;17.9;;;;;;;8.4;100.0;101810;;;;
2022/05/02 02:07:00;;;;;;;19.7;17.9;;;;;;;8.4;100.0;101810;;;;
2022/05/02 02:08:00;;;;;;;19.7;17.9;;;;;;;8.4;100.0;101810;;;;
2022/05/02 02:09:00;;;;;;;19.7;17.9;;;;;;;8.4;100.0;101810;;;;
2022/05/02 02:10:00;;;;;;;19.7;17.9;;;;;;;8.4;100.0;101810;;;;
2022/05/02 02:11:01;;;;;;;21.0;19.0;;;;;;;8.4;100.0;101810;;;;
2022/05/02 02:12:00;;;;;;;21.0;19.0;;;;;;;8.5;100.0;101810;;;;
2022/05/02 02:13:00;;;;;;;21.0;19.0;;;;;;;8.5;100.0;101810;;;;
2022/05/02 02:14:00;;;;;;;21.0;19.0;;;;;;;8.5;100.0;101810;;;;
2022/05/02 02:15:00;;;;;;;21.0;19.0;;;;;;;8.5;100.0;101810;;;;
2022/05/02 02:16:01;;;;;;;21.0;19.0;;;;;;;8.4;100.0;101810;;;;
2022/05/02 02:17:00;;;;;;;21.0;19.0;;;;;;;8.4;100.0;101810;;;;
2022/05/02 02:18:00;;;;;;;21.0;19.0;;;;;;;8.4;100.0;101810;;;;
2022/05/02 02:19:00;;;;;;;21.0;19.0;;;;;;;8.4;100.0;101810;;;;
2022/05/02 02:20:00;;;;;;;21.0;19.0;;;;;;;8.4;100.0;101810;;;;
2022/05/02 02:21:00;;;;;;;21.0;19.0;;;;;;;8.4;100.0;101810;;;;
2022/05/02 02:22:16;;;;;;;21.0;19.0;;;;;;;8.3;100.0;101810;;;;
2022/05/02 02:23:00;;;;;;;21.0;19.0;;;;;;;8.3;100.0;101810;;;;
2022/05/02 02:24:00;;;;;;;21.0;19.0;;;;;;;8.3;100.0;101810;;;;
2022/05/02 02:25:00;;;;;;;21.0;19.0;;;;;;;8.3;100.0;101810;;;;
2022/05/02 02:26:00;;;;;;;21.0;19.0;;;;;;;8.2;100.0;101810;;;;
2022/05/02 02:27:00;;;;;;;21.0;19.0;;;;;;;8.2;100.0;101810;;;;
2022/05/02 02:28:00;;;;;;;21.0;19.0;;;;;;;8.2;100.0;101810;;;;
2022/05/02 02:29:00;;;;;;;21.0;19.0;;;;;;;8.2;100.0;101810;;;;
2022/05/02 02:30:00;;;;;;;21.0;19.0;;;;;;;8.1;100.0;101810;;;;
2022/05/02 02:31:00;;;;;;;21.3;19.3;;;;;;;8.1;100.0;101810;;;;
2022/05/02 02:32:00;;;;;;;21.3;19.3;;;;;;;8.2;100.0;101810;;;;
2022/05/02 02:33:00;;;;;;;21.3;19.3;;;;;;;8.2;100.0;101810;;;;
2022/05/02 02:34:00;;;;;;;21.3;19.3;;;;;;;8.2;100.0;101800;;;;
2022/05/02 02:35:00;;;;;;;21.3;19.3;;;;;;;8.2;100.0;101800;;;;
2022/05/02 02:36:00;;;;;;;21.3;19.3;;;;;;;8.2;100.0;101810;;;;
2022/05/02 02:37:00;;;;;;;21.3;19.3;;;;;;;8.2;100.0;101810;;;;
2022/05/02 02:38:00;;;;;;;21.3;19.3;;;;;;;8.2;100.0;101800;;;;
2022/05/02 02:39:00;;;;;;;21.3;19.3;;;;;;;8.2;100.0;101800;;;;
2022/05/02 02:40:00;;;;;;;21.3;19.3;;;;;;;8.2;100.0;101800;;;;
2022/05/02 02:41:00;;;;;;;21.3;19.3;;;;;;;8.2;100.0;101800;;;;
2022/05/02 02:42:00;;;;;;;21.3;19.3;;;;;;;8.2;100.0;101800;;;;
2022/05/02 02:43:00;;;;;;;21.3;19.3;;;;;;;8.2;100.0;101800;;;;
2022/05/02 02:44:00;;;;;;;21.3;19.3;;;;;;;8.1;100.0;101800;;;;
2022/05/02 02:45:00;;;;;;;21.3;19.3;;;;;;;8.1;100.0;101800;;;;
2022/05/02 02:46:00;;;;;;;21.3;19.3;;;;;;;8.2;100.0;101800;;;;
2022/05/02 02:47:00;;;;;;;21.3;19.3;;;;;;;8.2;100.0;101800;;;;
2022/05/02 02:48:00;;;;;;;21.3;19.3;;;;;;;8.1;100.0;101800;;;;
2022/05/02 02:49:00;;;;;;;21.3;19.3;;;;;;;8.1;100.0;101800;;;;
2022/05/02 02:50:00;;;;;;;21.3;19.3;;;;;;;8.0;100.0;101790;;;;
2022/05/02 02:51:00;;;;;;;22.3;20.0;;;;;;;8.0;100.0;101790;;;;
2022/05/02 02:52:00;;;;;;;22.3;20.0;;;;;;;8.1;100.0;101790;;;;
2022/05/02 02:53:00;;;;;;;22.3;20.0;;;;;;;8.1;100.0;101790;;;;
2022/05/02 02:54:00;;;;;;;22.3;20.0;;;;;;;8.0;100.0;101790;;;;
2022/05/02 02:55:00;;;;;;;22.3;20.0;;;;;;;8.0;100.0;101790;;;;
2022/05/02 02:56:00;;;;;;;22.3;20.0;;;;;;;8.0;100.0;101790;;;;
2022/05/02 02:57:00;;;;;;;22.3;20.0;;;;;;;8.0;100.0;101790;;;;
2022/05/02 02:58:00;;;;;;;22.3;20.0;;;;;;;8.0;100.0;101790;;;;
2022/05/02 02:59:00;;;;;;;22.3;20.0;;;;;;;8.0;100.0;101790;;;;
2022/05/02 03:00:00;;;;;;;22.3;20.0;;;;;;;7.9;100.0;101780;;;;
2022/05/02 03:01:00;;;;;;;22.3;20.0;;;;;;;7.9;100.0;101780;;;;
2022/05/02 03:02:00;;;;;;;22.3;20.0;;;;;;;7.9;100.0;101780;;;;
2022/05/02 03:03:00;;;;;;;22.3;20.0;;;;;;;7.9;100.0;101780;;;;
2022/05/02 03:06:01;;;;;;;22.3;20.0;;;;;;;7.9;100.0;101780;;;;
2022/05/02 03:06:03;;;;;;;22.3;20.0;;;;;;;7.9;100.0;101780;;;;
2022/05/02 03:07:00;;;;;;;22.3;20.0;;;;;;;7.9;100.0;101780;;;;
2022/05/02 03:08:00;;;;;;;22.3;20.0;;;;;;;7.8;100.0;101780;;;;
2022/05/02 03:09:00;;;;;;;22.3;20.0;;;;;;;7.8;100.0;101780;;;;
2022/05/02 03:10:00;;;;;;;22.3;20.0;;;;;;;7.8;100.0;101780;;;;
2022/05/02 03:11:00;;;;;;;22.5;20.3;;;;;;;7.8;100.0;101780;;;;
2022/05/02 03:12:00;;;;;;;22.5;20.3;;;;;;;7.8;100.0;101770;;;;
2022/05/02 03:13:00;;;;;;;22.5;20.3;;;;;;;7.8;100.0;101770;;;;
2022/05/02 03:14:00;;;;;;;22.5;20.3;;;;;;;7.8;100.0;101770;;;;
2022/05/02 03:15:00;;;;;;;22.5;20.3;;;;;;;7.8;100.0;101770;;;;
2022/05/02 03:16:00;;;;;;;22.5;20.3;;;;;;;7.7;100.0;101780;;;;
2022/05/02 03:17:00;;;;;;;22.5;20.3;;;;;;;7.7;100.0;101780;;;;
2022/05/02 03:18:00;;;;;;;22.5;20.3;;;;;;;7.8;100.0;101770;;;;
2022/05/02 03:19:00;;;;;;;22.5;20.3;;;;;;;7.8;100.0;101770;;;;
2022/05/02 03:20:00;;;;;;;22.5;20.3;;;;;;;7.7;100.0;101780;;;;
2022/05/02 03:21:00;;;;;;;22.5;20.3;;;;;;;7.7;100.0;101780;;;;
2022/05/02 03:22:00;;;;;;;22.5;20.3;;;;;;;7.7;100.0;101780;;;;
2022/05/02 03:23:00;;;;;;;22.5;20.3;;;;;;;7.7;100.0;101780;;;;
2022/05/02 03:24:00;;;;;;;22.5;20.3;;;;;;;7.7;100.0;101780;;;;
2022/05/02 03:25:00;;;;;;;22.5;20.3;;;;;;;7.7;100.0;101780;;;;
2022/05/02 03:26:00;;;;;;;22.5;20.3;;;;;;;7.7;100.0;101770;;;;
2022/05/02 03:27:00;;;;;;;22.5;20.3;;;;;;;7.7;100.0;101770;;;;
2022/05/02 03:28:00;;;;;;;22.5;20.3;;;;;;;7.7;100.0;101770;;;;
2022/05/02 03:29:00;;;;;;;22.5;20.3;;;;;;;7.7;100.0;101770;;;;
2022/05/02 03:30:00;;;;;;;22.5;20.3;;;;;;;7.7;100.0;101770;;;;
2022/05/02 03:31:00;;;;;;;22.9;20.7;;;;;;;7.7;100.0;101770;;;;
2022/05/02 03:32:00;;;;;;;22.9;20.7;;;;;;;7.7;100.0;101770;;;;
2022/05/02 03:33:01;;;;;;;22.9;20.7;;;;;;;7.7;100.0;101770;;;;
2022/05/02 03:34:00;;;;;;;22.9;20.7;;;;;;;7.6;100.0;101770;;;;
2022/05/02 03:35:00;;;;;;;22.9;20.7;;;;;;;7.6;100.0;101770;;;;
2022/05/02 03:36:00;;;;;;;22.9;20.7;;;;;;;7.6;100.0;101770;;;;
2022/05/02 03:37:00;;;;;;;22.9;20.7;;;;;;;7.6;100.0;101770;;;;
2022/05/02 03:38:00;;;;;;;22.9;20.7;;;;;;;7.6;100.0;101770;;;;
2022/05/02 03:39:00;;;;;;;22.9;20.7;;;;;;;7.6;100.0;101770;;;;
2022/05/02 03:40:00;;;;;;;22.9;20.7;;;;;;;7.6;100.0;101770;;;;
2022/05/02 03:41:00;;;;;;;22.9;20.7;;;;;;;7.6;100.0;101770;;;;
2022/05/02 03:42:00;;;;;;;22.9;20.7;;;;;;;7.6;100.0;101770;;;;
2022/05/02 03:43:00;;;;;;;22.9;20.7;;;;;;;7.6;100.0;101770;;;;
2022/05/02 03:44:00;;;;;;;22.9;20.7;;;;;;;7.6;100.0;101770;;;;
2022/05/02 03:45:01;;;;;;;22.9;20.7;;;;;;;7.6;100.0;101770;;;;
2022/05/02 03:46:00;;;;;;;22.9;20.7;;;;;;;7.5;100.0;101760;;;;
2022/05/02 03:47:00;;;;;;;22.9;20.7;;;;;;;7.5;100.0;101760;;;;
2022/05/02 03:48:00;;;;;;;22.9;20.7;;;;;;;7.5;100.0;101760;;;;
2022/05/02 03:49:00;;;;;;;22.9;20.7;;;;;;;7.5;100.0;101760;;;;
2022/05/02 03:50:00;;;;;;;22.6;20.3;;;;;;;7.5;100.0;101760;;;;
2022/05/02 03:51:00;;;;;;;22.6;20.3;;;;;;;7.5;100.0;101760;;;;
2022/05/02 03:52:00;;;;;;;22.6;20.3;;;;;;;7.6;100.0;101770;;;;
2022/05/02 03:53:00;;;;;;;22.6;20.3;;;;;;;7.6;100.0;101770;;;;
2022/05/02 03:54:00;;;;;;;22.6;20.3;;;;;;;7.6;100.0;101770;;;;
2022/05/02 03:55:00;;;;;;;22.6;20.3;;;;;;;7.6;100.0;101770;;;;
2022/05/02 03:56:00;;;;;;;22.6;20.3;;;;;;;7.5;100.0;101770;;;;
2022/05/02 03:57:00;;;;;;;22.6;20.3;;;;;;;7.5;100.0;101770;;;;
2022/05/02 03:58:02;;;;;;;22.6;20.3;;;;;;;7.5;100.0;101770;;;;
2022/05/02 03:59:00;;;;;;;22.6;20.3;;;;;;;7.5;100.0;101770;;;;
2022/05/02 04:00:00;;;;;;;22.6;20.3;;;;;;;7.4;100.0;101770;;;;
2022/05/02 04:01:00;;;;;;;22.6;20.3;;;;;;;7.4;100.0;101770;;;;
2022/05/02 04:02:00;;;;;;;22.6;20.3;;;;;;;7.4;100.0;101770;;;;
2022/05/02 04:03:00;;;;;;;22.6;20.3;;;;;;;7.4;100.0;101770;;;;
2022/05/02 04:04:00;;;;;;;22.6;20.3;;;;;;;7.4;100.0;101770;;;;
2022/05/02 04:05:00;;;;;;;22.6;20.3;;;;;;;7.4;100.0;101770;;;;
2022/05/02 04:06:00;;;;;;;22.6;20.3;;;;;;;7.4;100.0;101770;;;;
2022/05/02 04:07:00;;;;;;;22.6;20.3;;;;;;;7.4;100.0;101770;;;;
2022/05/02 04:08:00;;;;;;;22.6;20.3;;;;;;;7.4;100.0;101770;;;;
2022/05/02 04:09:00;;;;;;;22.6;20.3;;;;;;;7.4;100.0;101770;;;;
2022/05/02 04:10:00;;;;;;;24.1;21.8;;;;;;;7.4;100.0;101770;;;;
2022/05/02 04:11:00;;;;;;;24.1;21.8;;;;;;;7.4;100.0;101770;;;;
2022/05/02 04:12:01;;;;;;;24.1;21.8;;;;;;;7.4;100.0;101770;;;;
2022/05/02 04:13:00;;;;;;;24.1;21.8;;;;;;;7.4;100.0;101770;;;;
2022/05/02 04:14:00;;;;;;;24.1;21.8;;;;;;;7.4;100.0;101770;;;;
2022/05/02 04:15:00;;;;;;;24.1;21.8;;;;;;;7.4;100.0;101770;;;;
2022/05/02 04:16:00;;;;;;;24.1;21.8;;;;;;;7.4;100.0;101770;;;;
2022/05/02 04:17:00;;;;;;;24.1;21.8;;;;;;;7.4;100.0;101770;;;;
2022/05/02 04:18:00;;;;;;;24.1;21.8;;;;;;;7.4;100.0;101770;;;;
2022/05/02 04:19:00;;;;;;;24.1;21.8;;;;;;;7.4;100.0;101770;;;;
2022/05/02 04:20:00;;;;;;;24.1;21.8;;;;;;;7.3;100.0;101770;;;;
2022/05/02 04:21:00;;;;;;;24.1;21.8;;;;;;;7.3;100.0;101770;;;;
2022/05/02 04:22:00;;;;;;;24.1;21.8;;;;;;;7.3;100.0;101770;;;;
2022/05/02 04:23:00;;;;;;;24.1;21.8;;;;;;;7.3;100.0;101770;;;;
2022/05/02 04:24:00;;;;;;;24.1;21.8;;;;;;;7.3;100.0;101770;;;;
2022/05/02 04:25:00;;;;;;;24.1;21.8;;;;;;;7.3;100.0;101770;;;;
2022/05/02 04:26:00;;;;;;;24.1;21.8;;;;;;;7.3;100.0;101770;;;;
2022/05/02 04:27:00;;;;;;;24.1;21.8;;;;;;;7.3;100.0;101770;;;;
2022/05/02 04:28:00;;;;;;;24.1;21.8;;;;;;;7.3;100.0;101770;;;;
2022/05/02 04:29:00;;;;;;;24.1;21.8;;;;;;;7.3;100.0;101770;;;;
2022/05/02 04:30:00;;;;;;;24.5;22.1;;;;;;;7.3;100.0;101770;;;;
2022/05/02 04:31:00;;;;;;;24.5;22.1;;;;;;;7.3;100.0;101770;;;;
2022/05/02 04:32:00;;;;;;;24.5;22.1;;;;;;;7.3;100.0;101770;;;;
2022/05/02 04:33:00;;;;;;;24.5;22.1;;;;;;;7.3;100.0;101770;;;;
2022/05/02 04:34:00;;;;;;;24.5;22.1;;;;;;;7.3;100.0;101770;;;;
2022/05/02 04:35:00;;;;;;;24.5;22.1;;;;;;;7.3;100.0;101770;;;;
2022/05/02 04:36:00;;;;;;;24.5;22.1;;;;;;;7.3;100.0;101770;;;;
2022/05/02 04:37:00;;;;;;;24.5;22.1;;;;;;;7.3;100.0;101770;;;;
2022/05/02 04:38:01;;;;;;;24.5;22.1;;;;;;;7.3;100.0;101770;;;;
2022/05/02 04:39:03;;;;;;;24.5;22.1;;;;;;;7.3;100.0;101770;;;;
2022/05/02 04:40:00;;;;;;;24.5;22.1;;;;;;;7.3;100.0;101770;;;;
2022/05/02 04:41:00;;;;;;;24.5;22.1;;;;;;;7.3;100.0;101770;;;;
2022/05/02 04:42:00;;;;;;;24.5;22.1;;;;;;;7.3;100.0;101760;;;;
2022/05/02 04:43:00;;;;;;;24.5;22.1;;;;;;;7.3;100.0;101760;;;;
2022/05/02 04:44:00;;;;;;;24.5;22.1;;;;;;;7.3;100.0;101770;;;;
2022/05/02 04:45:00;;;;;;;24.5;22.1;;;;;;;7.3;100.0;101770;;;;
2022/05/02 04:46:00;;;;;;;24.5;22.1;;;;;;;7.3;100.0;101770;;;;
2022/05/02 04:47:00;;;;;;;24.5;22.1;;;;;;;7.3;100.0;101770;;;;
2022/05/02 04:48:00;;;;;;;24.5;22.1;;;;;;;7.3;100.0;101770;;;;
2022/05/02 04:49:00;;;;;;;24.5;22.1;;;;;;;7.3;100.0;101770;;;;
2022/05/02 04:50:00;;;;;;;23.5;21.1;;;;;;;7.3;100.0;101770;;;;
2022/05/02 04:51:00;;;;;;;23.5;21.1;;;;;;;7.3;100.0;101770;;;;
2022/05/02 04:52:00;;;;;;;23.5;21.1;;;;;;;7.4;100.0;101760;;;;
2022/05/02 04:53:00;;;;;;;23.5;21.1;;;;;;;7.4;100.0;101760;;;;
2022/05/02 04:54:00;;;;;;;23.5;21.1;;;;;;;7.4;100.0;101760;;;;
2022/05/02 04:55:00;;;;;;;23.5;21.1;;;;;;;7.4;100.0;101760;;;;
2022/05/02 04:56:00;;;;;;;23.5;21.1;;;;;;;7.4;100.0;101770;;;;
2022/05/02 04:57:04;;;;;;;23.5;21.1;;;;;;;7.4;100.0;101770;;;;
2022/05/02 04:58:00;;;;;;;23.5;21.1;;;;;;;7.3;100.0;101770;;;;
2022/05/02 04:59:00;;;;;;;23.5;21.1;;;;;;;7.3;100.0;101770;;;;
2022/05/02 05:00:00;;;;;;;23.5;21.1;;;;;;;7.4;100.0;101770;;;;
2022/05/02 05:01:00;;;;;;;23.5;21.1;;;;;;;7.4;100.0;101770;;;;
2022/05/02 05:02:00;;;;;;;23.5;21.1;;;;;;;7.4;100.0;101770;;;;
2022/05/02 05:03:02;;;;;;;23.5;21.1;;;;;;;7.4;100.0;101770;;;;
2022/05/02 05:04:00;;;;;;;23.5;21.1;;;;;;;7.4;100.0;101770;;;;
2022/05/02 05:05:00;;;;;;;23.5;21.1;;;;;;;7.4;100.0;101770;;;;
2022/05/02 05:06:00;;;;;;;23.5;21.1;;;;;;;7.4;100.0;101770;;;;
2022/05/02 05:07:00;;;;;;;23.5;21.1;;;;;;;7.4;100.0;101770;;;;
2022/05/02 05:08:00;;;;;;;23.5;21.1;;;;;;;7.4;100.0;101780;;;;
2022/05/02 05:09:00;;;;;;;23.5;21.1;;;;;;;7.4;100.0;101780;;;;
2022/05/02 05:10:00;;;;;;;23.8;21.3;;;;;;;7.5;100.0;101770;;;;
2022/05/02 05:11:10;;;;;;;23.8;21.3;;;;;;;7.5;100.0;101770;;;;
2022/05/02 05:12:10;;;;;;;23.8;21.3;;;;;;;7.6;100.0;101780;;;;
2022/05/02 05:13:08;;;;;;;23.8;21.3;;;;;;;7.6;100.0;101780;;;;
2022/05/02 05:16:20;;;;;;;23.8;21.3;;;;;;;7.7;100.0;101780;;;;
2022/05/02 05:17:10;;;;;;;23.8;21.3;;;;;;;7.7;100.0;101780;;;;
2022/05/02 05:18:06;;;;;;;23.8;21.3;;;;;;;7.7;100.0;101780;;;;
2022/05/02 05:19:10;;;;;;;23.8;21.3;;;;;;;7.7;100.0;101780;;;;
2022/05/02 05:20:03;;;;;;;23.8;21.3;;;;;;;7.8;100.0;101780;;;;
2022/05/02 05:21:15;;;;;;;23.8;21.3;;;;;;;7.8;100.0;101780;;;;
2022/05/02 05:22:10;;;;;;;23.8;21.3;;;;;;;7.8;100.0;101780;;;;
2022/05/02 05:23:10;;;;;;;23.8;21.3;;;;;;;7.8;100.0;101780;;;;
2022/05/02 05:24:10;;;;;;;23.8;21.3;;;;;;;7.8;100.0;101780;;;;
2022/05/02 05:25:10;;;;;;;23.8;21.3;;;;;;;7.8;100.0;101780;;;;
2022/05/02 05:26:10;;;;;;;23.8;21.3;;;;;;;7.8;100.0;101780;;;;
2022/05/02 05:27:01;;;;;;;23.8;21.3;;;;;;;7.8;100.0;101780;;;;
2022/05/02 05:28:03;;;;;;;23.8;21.3;;;;;;;7.9;100.0;101780;;;;
2022/05/02 05:29:00;;;;;;;23.8;21.3;;;;;;;7.9;100.0;101780;;;;
2022/05/02 05:30:03;;;;;;;23.9;21.6;;;;;;;7.9;100.0;101780;;;;
2022/05/02 05:31:10;;;;;;;23.9;21.6;;;;;;;7.9;100.0;101780;;;;
2022/05/02 05:32:08;;;;;;;23.9;21.6;;;;;;;8.0;100.0;101780;;;;
2022/05/02 05:33:04;;;;;;;23.9;21.6;;;;;;;8.0;100.0;101780;;;;
2022/05/02 05:34:00;;;;;;;23.9;21.6;;;;;;;8.0;100.0;101780;;;;
2022/05/02 05:35:04;;;;;;;23.9;21.6;;;;;;;8.0;100.0;101780;;;;
2022/05/02 05:36:00;;;;;;;23.9;21.6;;;;;;;8.1;100.0;101780;;;;
2022/05/02 05:37:10;;;;;;;23.9;21.6;;;;;;;8.1;100.0;101780;;;;
2022/05/02 05:38:01;;;;;;;23.9;21.6;;;;;;;8.1;100.0;101770;;;;
2022/05/02 05:39:04;;;;;;;23.9;21.6;;;;;;;8.1;100.0;101770;;;;
2022/05/02 05:40:03;;;;;;;23.9;21.6;;;;;;;8.2;100.0;101780;;;;
2022/05/02 05:41:10;;;;;;;23.9;21.6;;;;;;;8.2;100.0;101780;;;;
2022/05/02 05:42:00;;;;;;;23.9;21.6;;;;;;;8.2;100.0;101780;;;;
2022/05/02 05:43:09;;;;;;;23.9;21.6;;;;;;;8.2;100.0;101780;;;;
2022/05/02 05:44:10;;;;;;;23.9;21.6;;;;;;;8.4;100.0;101770;;;;
2022/05/02 05:45:05;;;;;;;23.9;21.6;;;;;;;8.4;100.0;101770;;;;
2022/05/02 05:46:01;;;;;;;23.9;21.6;;;;;;;8.4;100.0;101780;;;;
2022/05/02 05:47:10;;;;;;;23.9;21.6;;;;;;;8.4;100.0;101780;;;;
2022/05/02 05:48:08;;;;;;;23.9;21.6;;;;;;;8.4;100.0;101780;;;;
2022/05/02 05:49:10;;;;;;;23.9;21.6;;;;;;;8.4;100.0;101780;;;;
2022/05/02 05:50:10;;;;;;;22.2;20.1;;;;;;;8.5;100.0;101780;;;;
2022/05/02 05:51:10;;;;;;;22.2;20.1;;;;;;;8.5;100.0;101780;;;;
2022/05/02 05:52:10;;;;;;;22.2;20.1;;;;;;;8.6;100.0;101780;;;;
2022/05/02 05:53:01;;;;;;;22.2;20.1;;;;;;;8.6;100.0;101780;;;;
2022/05/02 05:54:05;;;;;;;22.2;20.1;;;;;;;8.7;100.0;101780;;;;
2022/05/02 05:55:03;;;;;;;22.2;20.1;;;;;;;8.7;100.0;101780;;;;
2022/05/02 05:56:00;;;;;;;22.2;20.1;;;;;;;8.8;100.0;101780;;;;
2022/05/02 05:57:10;;;;;;;22.2;20.1;;;;;;;8.8;100.0;101780;;;;
2022/05/02 05:58:10;;;;;;;22.2;20.1;;;;;;;8.8;100.0;101780;;;;
2022/05/02 05:59:10;;;;;;;22.2;20.1;;;;;;;8.8;100.0;101780;;;;
2022/05/02 06:00:00;;;;;;;22.2;20.1;;;;;;;8.9;100.0;101790;;;;
2022/05/02 06:01:11;;;;;;;22.2;20.1;;;;;;;8.9;100.0;101790;;;;
2022/05/02 06:02:05;;;;;;;22.2;20.1;;;;;;;8.9;100.0;101790;;;;
2022/05/02 06:03:06;;;;;;;22.2;20.1;;;;;;;8.9;100.0;101790;;;;
2022/05/02 06:04:04;;;;;;;22.2;20.1;;;;;;;9.1;100.0;101780;;;;
2022/05/02 06:05:00;;;;;;;22.2;20.1;;;;;;;9.1;100.0;101780;;;;
2022/05/02 06:06:00;;;;;;;22.2;20.1;;;;;;;9.1;100.0;101790;;;;
2022/05/02 06:07:00;;;;;;;22.2;20.1;;;;;;;9.1;100.0;101790;;;;
2022/05/02 06:08:03;;;;;;;22.2;20.1;;;;;;;9.2;100.0;101790;;;;
2022/05/02 06:09:00;;;;;;;22.2;20.1;;;;;;;9.2;100.0;101790;;;;
2022/05/02 06:10:02;;;;;;;21.3;19.2;;;;;;;9.3;100.0;101790;;;;
2022/05/02 06:11:01;;;;;;;21.3;19.2;;;;;;;9.3;100.0;101790;;;;
2022/05/02 06:12:01;;;;;;;21.3;19.2;;;;;;;9.4;100.0;101790;;;;
2022/05/02 06:13:01;;;;;;;21.3;19.2;;;;;;;9.4;100.0;101790;;;;
2022/05/02 06:14:02;;;;;;;21.3;19.2;;;;;;;9.3;100.0;101790;;;;
2022/05/02 06:19:01;;;;;;;21.3;19.2;;;;;;;9.4;100.0;101790;;;;
2022/05/02 06:20:00;;;;;;;21.3;19.2;;;;;;;9.6;100.0;101780;;;;
2022/05/02 06:21:02;;;;;;;21.3;19.2;;;;;;;9.6;100.0;101780;;;;
2022/05/02 06:22:01;;;;;;;21.3;19.2;;;;;;;9.6;100.0;101790;;;;
2022/05/02 06:23:01;;;;;;;21.3;19.2;;;;;;;9.6;100.0;101790;;;;
2022/05/02 06:24:01;;;;;;;21.3;19.2;;;;;;;9.7;100.0;101780;;;;
2022/05/02 06:25:01;;;;;;;21.3;19.2;;;;;;;9.7;100.0;101780;;;;
2022/05/02 06:26:02;;;;;;;21.3;19.2;;;;;;;9.8;100.0;101790;;;;